Time;durP1;ratioP1;P1;durP2;ratioP2;P2;SDS_P1;SDS_P2;PMS_P1;PMS_P2;Temp;Humidity;BMP_temperature;BMP_pressure;BME280_temperature;BME280_humidity;BME280_pressure;Samples;Min_cycle;Max_cycle;Signal;HPM_P1;HPM_P2
2021/11/21 00:04:09;;;;;;;0.00;0.00;;;;;;;-145.06;100.00;63404.56;10429143;28;20018;-67
2021/11/21 00:09:09;;;;;;;0.03;0.03;;;;;;;-145.06;100.00;63404.56;10424020;28;20033;-67
2021/11/21 00:14:10;;;;;;;0.10;0.10;;;;;;;-145.06;100.00;63404.56;10427405;28;20028;-67
2021/11/21 00:19:10;;;;;;;0.10;0.10;;;;;;;-145.06;100.00;63404.56;10456675;28;20031;-66
2021/11/21 00:24:10;;;;;;;0.10;0.10;;;;;;;-145.06;100.00;63404.56;10456064;28;20043;-66
2021/11/21 00:29:11;;;;;;;0.10;0.10;;;;;;;-145.06;100.00;63404.56;10456002;28;20029;-67
2021/11/21 00:34:11;;;;;;;0.10;0.10;;;;;;;-145.06;100.00;63404.56;10455490;28;20027;-67
2021/11/21 00:39:12;;;;;;;0.00;0.00;;;;;;;-145.06;100.00;63404.56;10456055;28;20082;-67
2021/11/21 00:44:12;;;;;;;0.10;0.10;;;;;;;-145.06;100.00;63404.56;10450108;28;20025;-67
2021/11/21 00:49:15;;;;;;;0.10;0.10;;;;;;;-145.06;100.00;63404.56;10455294;28;20025;-67
2021/11/21 00:59:24;;;;;;;0.10;0.10;;;;;;;-145.06;100.00;63404.56;10455736;28;20030;-67
2021/11/21 01:04:24;;;;;;;0.00;0.00;;;;;;;-145.06;100.00;63404.56;10455240;28;20021;-67
2021/11/21 01:09:26;;;;;;;0.10;0.10;;;;;;;-145.06;100.00;63404.56;10454778;28;20032;-67
2021/11/21 01:14:28;;;;;;;0.00;0.00;;;;;;;-145.06;100.00;63404.56;10454771;28;20025;-67
2021/11/21 01:19:28;;;;;;;0.10;0.10;;;;;;;-145.06;100.00;63404.56;10427936;28;20480;-67
2021/11/21 01:24:29;;;;;;;0.00;0.00;;;;;;;-145.06;100.00;63404.56;10454098;28;20028;-67
2021/11/21 01:29:29;;;;;;;0.00;0.00;;;;;;;-145.06;100.00;63404.56;10541028;22;20054;-69
2021/11/21 01:34:30;;;;;;;0.00;0.00;;;;;;;-145.06;100.00;63404.56;10542216;28;20016;-69
2021/11/21 01:39:30;;;;;;;0.08;0.08;;;;;;;-145.06;100.00;63404.56;10492767;28;20737;-69
2021/11/21 01:44:30;;;;;;;0.10;0.10;;;;;;;-145.06;100.00;63404.56;10499245;28;20417;-69
2021/11/21 01:49:31;;;;;;;0.10;0.10;;;;;;;-145.06;100.00;63404.56;10533788;28;20020;-69
2021/11/21 01:54:32;;;;;;;0.10;0.10;;;;;;;-145.06;100.00;63404.56;10525246;28;20020;-69
2021/11/21 01:59:39;;;;;;;0.10;0.10;;;;;;;-145.06;100.00;63404.56;10533763;28;20379;-69
2021/11/21 02:04:40;;;;;;;0.00;0.00;;;;;;;-145.06;100.00;63404.56;10516359;28;20107;-67
2021/11/21 02:09:41;;;;;;;0.00;0.00;;;;;;;-145.06;100.00;63404.56;10518392;28;20115;-68
2021/11/21 02:14:41;;;;;;;0.10;0.10;;;;;;;-145.06;100.00;63404.56;10491240;28;20286;-68
2021/11/21 02:19:41;;;;;;;0.07;0.07;;;;;;;-145.06;100.00;63404.56;10491532;28;20360;-69
2021/11/21 02:24:42;;;;;;;0.03;0.03;;;;;;;-145.06;100.00;63404.56;10526079;28;20471;-69
2021/11/21 02:29:42;;;;;;;0.10;0.10;;;;;;;-145.06;100.00;63404.56;10532140;28;20198;-69
2021/11/21 02:34:42;;;;;;;0.00;0.00;;;;;;;-145.06;100.00;63404.56;10530544;28;20055;-68
2021/11/21 02:39:43;;;;;;;0.00;0.00;;;;;;;-145.06;100.00;63404.56;10507898;28;20667;-69
2021/11/21 02:44:43;;;;;;;0.10;0.10;;;;;;;-145.06;100.00;63404.56;10532856;28;20669;-69
2021/11/21 02:49:43;;;;;;;0.00;0.00;;;;;;;-145.06;100.00;63404.56;10532771;28;20106;-69
2021/11/21 02:54:52;;;;;;;0.00;0.00;;;;;;;-145.06;100.00;63404.56;10531996;28;20102;-69
2021/11/21 02:59:52;;;;;;;0.10;0.10;;;;;;;-145.06;100.00;63404.56;10513722;28;20047;-69
2021/11/21 03:04:53;;;;;;;0.00;0.00;;;;;;;-145.06;100.00;63404.56;10497257;28;20055;-69
2021/11/21 03:09:53;;;;;;;0.00;0.00;;;;;;;-145.06;100.00;63404.56;10489778;28;20179;-68
2021/11/21 03:14:54;;;;;;;0.00;0.00;;;;;;;-145.06;100.00;63404.56;10489245;28;20021;-68
2021/11/21 03:19:54;;;;;;;0.10;0.10;;;;;;;-145.06;100.00;63404.56;10488871;28;20070;-68
2021/11/21 03:24:55;;;;;;;0.00;0.00;;;;;;;-145.06;100.00;63404.56;10488420;28;20028;-68
2021/11/21 03:29:55;;;;;;;0.10;0.10;;;;;;;-145.06;100.00;63404.56;10489054;28;20271;-68
2021/11/21 03:34:55;;;;;;;0.00;0.00;;;;;;;-145.06;100.00;63404.56;10525105;28;20290;-68
2021/11/21 03:39:56;;;;;;;0.00;0.00;;;;;;;-145.06;100.00;63404.56;10529996;28;20035;-68
2021/11/21 03:44:56;;;;;;;0.10;0.10;;;;;;;-145.06;100.00;63404.56;10521395;28;20320;-68
2021/11/21 03:49:57;;;;;;;0.03;0.03;;;;;;;-145.06;100.00;63404.56;10530520;28;20383;-68
2021/11/21 03:54:57;;;;;;;0.00;0.00;;;;;;;-145.06;100.00;63404.56;10526119;28;20559;-69
2021/11/21 03:59:57;;;;;;;0.00;0.00;;;;;;;-145.06;100.00;63404.56;10488878;28;20162;-69
2021/11/21 04:04:58;;;;;;;0.10;0.10;;;;;;;-145.06;100.00;63404.56;10505898;28;20027;-69
2021/11/21 04:09:58;;;;;;;0.00;0.00;;;;;;;-145.06;100.00;63404.56;10526601;28;20016;-69
2021/11/21 04:14:59;;;;;;;0.10;0.10;;;;;;;-145.06;100.00;63404.56;10514032;28;20020;-69
2021/11/21 04:19:59;;;;;;;0.00;0.00;;;;;;;-145.06;100.00;63404.56;10514296;28;20028;-68
2021/11/21 04:25:00;;;;;;;0.10;0.10;;;;;;;-145.06;100.00;63404.56;10487339;28;20036;-68
2021/11/21 04:30:01;;;;;;;0.05;0.05;;;;;;;-145.06;100.00;63404.56;10488347;28;20096;-68
2021/11/21 04:35:01;;;;;;;0.10;0.10;;;;;;;-145.06;100.00;63404.56;10523681;28;20035;-69
2021/11/21 04:40:06;;;;;;;0.00;0.00;;;;;;;-145.06;100.00;63404.56;10510711;28;20020;-69
2021/11/21 04:45:08;;;;;;;0.00;0.00;;;;;;;-145.06;100.00;63404.56;10528125;28;20494;-69
2021/11/21 04:50:10;;;;;;;0.00;0.00;;;;;;;-145.06;100.00;63404.56;10528835;28;20020;-68
2021/11/21 04:55:12;;;;;;;0.10;0.10;;;;;;;-145.06;100.00;63404.56;10531460;28;20032;-68
2021/11/21 05:00:16;;;;;;;0.00;0.00;;;;;;;-145.06;100.00;63404.56;10502151;28;20028;-69
2021/11/21 05:05:19;;;;;;;0.00;0.00;;;;;;;-145.06;100.00;63404.56;10531424;28;20039;-69
2021/11/21 05:10:21;;;;;;;0.10;0.10;;;;;;;-145.06;100.00;63404.56;10535457;28;20093;-69
2021/11/21 05:15:23;;;;;;;0.00;0.00;;;;;;;-145.06;100.00;63404.56;10535059;28;20039;-69
2021/11/21 05:20:24;;;;;;;0.10;0.10;;;;;;;-145.06;100.00;63404.56;10535748;28;20100;-69
2021/11/21 05:25:24;;;;;;;0.10;0.10;;;;;;;-145.06;100.00;63404.56;10534597;28;20087;-69
2021/11/21 05:30:25;;;;;;;0.10;0.10;;;;;;;-145.06;100.00;63404.56;10532800;28;20067;-69
2021/11/21 05:35:25;;;;;;;0.10;0.10;;;;;;;-145.06;100.00;63404.56;10511431;28;20329;-69
2021/11/21 05:40:25;;;;;;;0.08;0.08;;;;;;;-145.06;100.00;63404.56;10492750;28;20036;-69
2021/11/21 05:45:27;;;;;;;0.00;0.00;;;;;;;-145.06;100.00;63404.56;10492914;28;20012;-69
2021/11/21 05:50:28;;;;;;;0.00;0.00;;;;;;;-145.06;100.00;63404.56;10492198;28;20502;-69
2021/11/21 05:55:29;;;;;;;0.00;0.00;;;;;;;-145.06;100.00;63404.56;10491385;28;20055;-69
2021/11/21 06:00:29;;;;;;;0.00;0.00;;;;;;;-145.06;100.00;63404.56;10494151;28;20096;-69
2021/11/21 06:05:31;;;;;;;0.10;0.10;;;;;;;-145.06;100.00;63404.56;10530317;28;20538;-69
2021/11/21 06:10:31;;;;;;;0.00;0.00;;;;;;;-145.06;100.00;63404.56;10516609;28;20491;-69
2021/11/21 06:15:31;;;;;;;0.00;0.00;;;;;;;-145.06;100.00;63404.56;10491194;28;20020;-69
2021/11/21 06:20:33;;;;;;;0.10;0.10;;;;;;;-145.06;100.00;63404.56;10490515;28;20055;-68
2021/11/21 06:25:33;;;;;;;0.10;0.10;;;;;;;-145.06;100.00;63404.56;10490010;28;20495;-68
2021/11/21 06:30:34;;;;;;;0.00;0.00;;;;;;;-145.06;100.00;63404.56;10493367;28;20029;-68
2021/11/21 06:35:36;;;;;;;0.00;0.00;;;;;;;-145.06;100.00;63404.56;10523816;28;20028;-67
2021/11/21 06:40:37;;;;;;;0.00;0.00;;;;;;;-145.06;100.00;63404.56;10531123;28;20084;-67
2021/11/21 06:45:37;;;;;;;0.00;0.00;;;;;;;-145.06;100.00;63404.56;10506554;28;20089;-67
2021/11/21 06:50:38;;;;;;;0.00;0.00;;;;;;;-145.06;100.00;63404.56;10489837;28;20081;-67
2021/11/21 06:55:39;;;;;;;0.00;0.00;;;;;;;-145.06;100.00;63404.56;10488790;28;20129;-67
2021/11/21 07:00:39;;;;;;;0.10;0.10;;;;;;;-145.06;100.00;63404.56;10495150;28;20032;-68
2021/11/21 07:05:39;;;;;;;0.00;0.00;;;;;;;-145.06;100.00;63404.56;10507832;28;20323;-67
2021/11/21 07:10:40;;;;;;;0.00;0.00;;;;;;;-145.06;100.00;63404.56;10489266;28;20021;-67
2021/11/21 07:15:40;;;;;;;0.00;0.00;;;;;;;-145.06;100.00;63404.56;10488335;28;20528;-67
2021/11/21 07:20:40;;;;;;;0.10;0.10;;;;;;;-145.06;100.00;63404.56;10497164;28;20328;-68
2021/11/21 07:25:41;;;;;;;0.00;0.00;;;;;;;-145.06;100.00;63404.56;10487805;28;20024;-67
2021/11/21 07:30:41;;;;;;;0.00;0.00;;;;;;;-145.06;100.00;63404.56;10552993;22;20032;-68
2021/11/21 07:35:41;;;;;;;0.00;0.00;;;;;;;-145.06;100.00;63404.56;10570394;28;20411;-68
2021/11/21 07:40:42;;;;;;;0.00;0.00;;;;;;;-145.06;100.00;63404.56;10574412;28;20632;-69
2021/11/21 07:45:42;;;;;;;0.00;0.00;;;;;;;-145.06;100.00;63404.56;10563935;28;20047;-68
2021/11/21 07:50:42;;;;;;;0.00;0.00;;;;;;;-145.06;100.00;63404.56;10533965;28;20035;-68
2021/11/21 07:55:43;;;;;;;0.00;0.00;;;;;;;-145.06;100.00;63404.56;10533093;28;20047;-69
2021/11/21 08:00:43;;;;;;;0.00;0.00;;;;;;;-145.06;100.00;63404.56;10572397;28;20114;-68
2021/11/21 08:05:44;;;;;;;0.00;0.00;;;;;;;-145.06;100.00;63404.56;10575151;28;20016;-68
2021/11/21 08:10:44;;;;;;;0.00;0.00;;;;;;;-145.06;100.00;63404.56;10557296;28;20023;-68
2021/11/21 08:15:47;;;;;;;0.05;0.05;;;;;;;-145.06;100.00;63404.56;10574948;28;20020;-68
2021/11/21 08:20:48;;;;;;;0.00;0.00;;;;;;;-145.06;100.00;63404.56;10575105;28;20024;-68
2021/11/21 08:25:49;;;;;;;0.10;0.10;;;;;;;-145.06;100.00;63404.56;10559794;28;20020;-69
2021/11/21 08:30:49;;;;;;;0.00;0.00;;;;;;;-145.06;100.00;63404.56;10580866;28;20035;-69
2021/11/21 08:35:49;;;;;;;0.00;0.00;;;;;;;-145.06;100.00;63404.56;10582450;28;20031;-68
2021/11/21 08:40:50;;;;;;;0.10;0.10;;;;;;;-145.06;100.00;63404.56;10582815;28;20031;-68
2021/11/21 08:45:50;;;;;;;0.10;0.10;;;;;;;-145.06;100.00;63404.56;10582284;28;20428;-69
2021/11/21 08:50:53;;;;;;;0.00;0.00;;;;;;;-145.06;100.00;63404.56;10582210;28;20036;-68
2021/11/21 08:55:53;;;;;;;0.10;0.10;;;;;;;-145.06;100.00;63404.56;10582396;28;20020;-68
2021/11/21 09:00:54;;;;;;;0.10;0.10;;;;;;;-145.06;100.00;63404.56;10581539;28;20023;-68
2021/11/21 09:05:54;;;;;;;0.00;0.00;;;;;;;-145.06;100.00;63404.56;10563292;28;20762;-68
2021/11/21 09:10:54;;;;;;;0.10;0.10;;;;;;;-145.06;100.00;63404.56;10581440;28;20031;-68
2021/11/21 09:15:55;;;;;;;0.10;0.10;;;;;;;-145.06;100.00;63404.56;10581812;28;20273;-68
2021/11/21 09:20:56;;;;;;;0.10;0.10;;;;;;;-145.06;100.00;63404.56;10581332;28;20027;-68
2021/11/21 09:25:57;;;;;;;0.00;0.00;;;;;;;-145.06;100.00;63404.56;10545464;28;20031;-68
2021/11/21 09:30:57;;;;;;;0.10;0.10;;;;;;;-145.06;100.00;63404.56;10580480;28;20464;-68
2021/11/21 09:35:58;;;;;;;0.07;0.07;;;;;;;-145.06;100.00;63404.56;10580117;28;20031;-68
2021/11/21 09:40:58;;;;;;;0.10;0.10;;;;;;;-145.06;100.00;63404.56;10579963;28;20795;-68
2021/11/21 09:46:00;;;;;;;0.10;0.10;;;;;;;-145.06;100.00;63404.56;10580372;28;20114;-68
2021/11/21 09:51:02;;;;;;;0.10;0.10;;;;;;;-145.06;100.00;63404.56;10579667;28;20106;-69
2021/11/21 09:56:03;;;;;;;0.10;0.10;;;;;;;-145.06;100.00;63404.56;10579669;28;20024;-69
2021/11/21 10:01:04;;;;;;;0.10;0.10;;;;;;;-145.06;100.00;63404.56;10579093;28;20024;-68
2021/11/21 10:06:06;;;;;;;0.00;0.00;;;;;;;-145.06;100.00;63404.56;10560799;28;20424;-68
2021/11/21 10:11:10;;;;;;;0.00;0.00;;;;;;;-145.06;100.00;63404.56;10579172;28;20031;-68
2021/11/21 10:16:19;;;;;;;0.10;0.10;;;;;;;-145.06;100.00;63404.56;10579127;28;20024;-68
2021/11/21 10:21:25;;;;;;;0.10;0.10;;;;;;;-145.06;100.00;63404.56;10578543;28;20397;-68
2021/11/21 10:26:25;;;;;;;0.10;0.10;;;;;;;-145.06;100.00;63404.56;10578061;28;20026;-68
2021/11/21 10:31:29;;;;;;;0.10;0.10;;;;;;;-145.06;100.00;63404.56;10577680;28;20027;-68
2021/11/21 10:36:32;;;;;;;0.10;0.10;;;;;;;-145.06;100.00;63404.56;10577694;28;20542;-68
2021/11/21 10:41:44;;;;;;;0.00;0.00;;;;;;;-145.06;100.00;63404.56;10577682;28;20020;-68
2021/11/21 10:46:47;;;;;;;0.00;0.00;;;;;;;-145.06;100.00;63404.56;10577462;28;20097;-68
2021/11/21 10:52:00;;;;;;;0.10;0.10;;;;;;;-145.06;100.00;63404.56;10576313;28;20101;-68
2021/11/21 10:57:04;;;;;;;0.10;0.10;;;;;;;-145.06;100.00;63404.56;10578221;28;20385;-68
2021/11/21 11:02:07;;;;;;;0.10;0.10;;;;;;;-145.06;100.00;63404.56;10613944;27;20509;-68
2021/11/21 11:07:14;;;;;;;0.00;0.00;;;;;;;-145.06;100.00;63404.56;10582342;27;20024;-68
2021/11/21 11:12:14;;;;;;;0.10;0.10;;;;;;;-145.06;100.00;63404.56;10534313;28;20027;-68
2021/11/21 11:17:15;;;;;;;0.10;0.10;;;;;;;-145.06;100.00;63404.56;10534394;28;20053;-68
2021/11/21 11:22:15;;;;;;;0.00;0.00;;;;;;;-145.06;100.00;63404.56;10533888;28;20031;-68
2021/11/21 11:27:30;;;;;;;0.00;0.00;;;;;;;-145.06;100.00;63404.56;10543450;28;20118;-68
2021/11/21 11:32:36;;;;;;;0.10;0.10;;;;;;;-145.06;100.00;63404.56;10575372;28;20470;-68
2021/11/21 11:37:48;;;;;;;0.00;0.00;;;;;;;-145.06;100.00;63404.56;10576036;28;20051;-68
2021/11/21 11:42:48;;;;;;;0.00;0.00;;;;;;;-145.06;100.00;63404.56;10575835;28;20023;-67
2021/11/21 11:47:49;;;;;;;0.10;0.10;;;;;;;-145.06;100.00;63404.56;10575703;28;20050;-67
2021/11/21 11:52:59;;;;;;;0.03;0.03;;;;;;;-145.06;100.00;63404.56;10575357;28;20111;-68
2021/11/21 11:57:59;;;;;;;0.00;0.00;;;;;;;-145.06;100.00;63404.56;10575013;28;20386;-67
2021/11/21 12:03:00;;;;;;;0.00;0.00;;;;;;;-145.06;100.00;63404.56;10555030;28;20027;-69
2021/11/21 12:08:12;;;;;;;0.00;0.00;;;;;;;-145.06;100.00;63404.56;10541926;28;20024;-67
2021/11/21 12:13:27;;;;;;;0.00;0.00;;;;;;;-145.06;100.00;63404.56;10541440;28;20049;-67
2021/11/21 12:18:49;;;;;;;0.00;0.00;;;;;;;-145.06;100.00;63404.56;10541145;28;20035;-67
2021/11/21 12:23:49;;;;;;;0.10;0.10;;;;;;;-145.06;100.00;63404.56;10541430;28;20479;-68
2021/11/21 12:28:56;;;;;;;0.00;0.00;;;;;;;-145.06;100.00;63404.56;10540079;28;20043;-68
2021/11/21 12:34:24;;;;;;;0.10;0.10;;;;;;;-145.06;100.00;63404.56;10582595;28;20028;-68
2021/11/21 12:39:29;;;;;;;0.10;0.10;;;;;;;-145.06;100.00;63404.56;10582918;28;20104;-68
2021/11/21 12:44:29;;;;;;;0.00;0.00;;;;;;;-145.06;100.00;63404.56;10564231;28;20092;-68
2021/11/21 12:49:30;;;;;;;0.00;0.00;;;;;;;-145.06;100.00;63404.56;10582925;28;20024;-68
2021/11/21 12:54:31;;;;;;;0.10;0.10;;;;;;;-145.06;100.00;63404.56;10581762;28;20115;-68
2021/11/21 13:00:05;;;;;;;0.10;0.10;;;;;;;-145.06;100.00;63404.56;10581613;28;20049;-68
2021/11/21 13:05:06;;;;;;;0.00;0.00;;;;;;;-145.06;100.00;63404.56;10581911;28;20439;-68
2021/11/21 13:10:13;;;;;;;0.10;0.10;;;;;;;-145.06;100.00;63404.56;10581986;28;20054;-68
2021/11/21 13:15:22;;;;;;;0.10;0.10;;;;;;;-145.06;100.00;63404.56;10579737;28;20024;-68
2021/11/21 13:20:23;;;;;;;0.10;0.10;;;;;;;-145.06;100.00;63404.56;10563093;28;20027;-67
2021/11/21 13:25:42;;;;;;;0.03;0.03;;;;;;;-145.06;100.00;63404.56;10580487;28;20019;-68
2021/11/21 13:30:42;;;;;;;0.10;0.10;;;;;;;-145.06;100.00;63404.56;10580245;28;20402;-68
2021/11/21 13:35:43;;;;;;;0.10;0.10;;;;;;;-145.06;100.00;63404.56;10580211;28;20035;-67
2021/11/21 13:40:43;;;;;;;0.10;0.10;;;;;;;-145.06;100.00;63404.56;10581444;28;20120;-68
2021/11/21 13:45:44;;;;;;;0.10;0.10;;;;;;;-145.06;100.00;63404.56;10561460;28;20107;-67
2021/11/21 13:50:46;;;;;;;0.10;0.10;;;;;;;-145.06;100.00;63404.56;10579730;28;20028;-67
2021/11/21 13:55:46;;;;;;;0.00;0.00;;;;;;;-145.06;100.00;63404.56;10561191;28;20106;-67
2021/11/21 14:00:46;;;;;;;0.10;0.10;;;;;;;-145.06;100.00;63404.56;10578964;28;20401;-67
2021/11/21 14:05:47;;;;;;;0.03;0.03;;;;;;;-145.06;100.00;63404.56;10579084;28;20493;-67
2021/11/21 14:10:47;;;;;;;0.10;0.10;;;;;;;-145.06;100.00;63404.56;10579282;28;20023;-67
2021/11/21 14:15:48;;;;;;;0.00;0.00;;;;;;;-145.06;100.00;63404.56;10578926;28;20027;-67
2021/11/21 14:25:57;;;;;;;0.00;0.00;;;;;;;-145.06;100.00;63404.56;10575013;28;20018;-67
2021/11/21 14:31:07;;;;;;;0.00;0.00;;;;;;;-145.06;100.00;63404.56;10565823;28;20078;-67
2021/11/21 14:36:26;;;;;;;0.10;0.10;;;;;;;-145.06;100.00;63404.56;10540796;28;20023;-67
2021/11/21 14:41:41;;;;;;;0.10;0.10;;;;;;;-145.06;100.00;63404.56;10578619;28;20106;-67
2021/11/21 14:46:44;;;;;;;0.03;0.03;;;;;;;-145.06;100.00;63404.56;10577825;28;20482;-67
2021/11/21 14:51:44;;;;;;;0.00;0.00;;;;;;;-145.06;100.00;63404.56;10578202;28;20135;-67
2021/11/21 14:56:49;;;;;;;0.00;0.00;;;;;;;-145.06;100.00;63404.56;10571849;28;20047;-67
2021/11/21 15:01:49;;;;;;;0.00;0.00;;;;;;;-145.06;100.00;63404.56;10577081;28;20038;-67
2021/11/21 15:06:49;;;;;;;0.00;0.00;;;;;;;-145.06;100.00;63404.56;10576955;28;20489;-67
2021/11/21 15:11:50;;;;;;;0.00;0.00;;;;;;;-145.06;100.00;63404.56;10576892;28;20024;-67
2021/11/21 15:16:51;;;;;;;0.00;0.00;;;;;;;-145.06;100.00;63404.56;10576574;28;20488;-67
2021/11/21 15:21:51;;;;;;;0.00;0.00;;;;;;;-145.06;100.00;63404.56;10576524;28;20080;-67
2021/11/21 15:26:52;;;;;;;0.00;0.00;;;;;;;-145.06;100.00;63404.56;10570640;28;20028;-67
2021/11/21 15:31:52;;;;;;;0.00;0.00;;;;;;;-145.06;100.00;63404.56;10576063;28;20292;-67
2021/11/21 15:36:54;;;;;;;0.00;0.00;;;;;;;-145.06;100.00;63404.56;10557510;28;20116;-67
2021/11/21 15:41:54;;;;;;;0.00;0.00;;;;;;;-145.06;100.00;63404.56;10575868;28;20024;-67
2021/11/21 15:46:55;;;;;;;0.00;0.00;;;;;;;-145.06;100.00;63404.56;10575758;28;20019;-67
2021/11/21 15:51:55;;;;;;;0.10;0.10;;;;;;;-145.06;100.00;63404.56;10575379;28;20039;-67
2021/11/21 15:56:55;;;;;;;0.00;0.00;;;;;;;-145.06;100.00;63404.56;10569624;28;20019;-67
2021/11/21 16:01:56;;;;;;;0.00;0.00;;;;;;;-145.06;100.00;63404.56;10575183;28;20249;-67
2021/11/21 16:06:57;;;;;;;0.00;0.00;;;;;;;-145.06;100.00;63404.56;10575453;28;20107;-67
2021/11/21 16:11:57;;;;;;;0.00;0.00;;;;;;;-145.06;100.00;63404.56;10575019;28;20115;-67
2021/11/21 16:17:01;;;;;;;0.00;0.00;;;;;;;-145.06;100.00;63404.56;10575145;28;20525;-67
2021/11/21 16:22:01;;;;;;;0.00;0.00;;;;;;;-145.06;100.00;63404.56;10575937;28;20023;-67
2021/11/21 16:27:02;;;;;;;0.00;0.00;;;;;;;-145.06;100.00;63404.56;10568780;28;20393;-67
2021/11/21 16:32:04;;;;;;;0.00;0.00;;;;;;;-145.06;100.00;63404.56;10574782;28;20028;-67
2021/11/21 16:37:05;;;;;;;0.00;0.00;;;;;;;-145.06;100.00;63404.56;10575270;28;20023;-67
2021/11/21 16:42:06;;;;;;;0.00;0.00;;;;;;;-145.06;100.00;63404.56;10574380;28;20502;-67
2021/11/21 16:47:07;;;;;;;0.00;0.00;;;;;;;-145.06;100.00;63404.56;10574710;28;20031;-67
2021/11/21 16:52:10;;;;;;;0.00;0.00;;;;;;;-145.06;100.00;63404.56;10579191;28;20116;-67
2021/11/21 16:57:12;;;;;;;0.00;0.00;;;;;;;-145.06;100.00;63404.56;10576822;28;20031;-67
2021/11/21 17:02:13;;;;;;;0.00;0.00;;;;;;;-145.06;100.00;63404.56;10563790;28;20104;-67
2021/11/21 17:07:13;;;;;;;0.00;0.00;;;;;;;-145.06;100.00;63404.56;10581612;28;20055;-67
2021/11/21 17:12:14;;;;;;;0.00;0.00;;;;;;;-145.06;100.00;63404.56;10581480;28;20023;-67
2021/11/21 17:17:14;;;;;;;0.00;0.00;;;;;;;-145.06;100.00;63404.56;10581277;28;20024;-67
2021/11/21 17:22:17;;;;;;;0.00;0.00;;;;;;;-145.06;100.00;63404.56;10581128;28;20019;-67
2021/11/21 17:27:17;;;;;;;0.00;0.00;;;;;;;-145.06;100.00;63404.56;10574980;28;20398;-67
2021/11/21 17:32:18;;;;;;;0.00;0.00;;;;;;;-145.06;100.00;63404.56;10580558;28;20037;-67
2021/11/21 17:37:20;;;;;;;0.00;0.00;;;;;;;-145.06;100.00;63404.56;10580932;28;20027;-67
2021/11/21 17:42:23;;;;;;;0.00;0.00;;;;;;;-145.06;100.00;63404.56;10580135;28;20024;-67
2021/11/21 17:47:27;;;;;;;0.00;0.00;;;;;;;-145.06;100.00;63404.56;10580428;28;20047;-67
2021/11/21 17:52:28;;;;;;;0.00;0.00;;;;;;;-145.06;100.00;63404.56;10579737;28;20024;-67
2021/11/21 17:57:28;;;;;;;0.00;0.00;;;;;;;-145.06;100.00;63404.56;10574461;28;20451;-67
2021/11/21 18:02:30;;;;;;;0.00;0.00;;;;;;;-145.06;100.00;63404.56;10579006;28;20053;-67
2021/11/21 18:07:30;;;;;;;0.00;0.00;;;;;;;-145.06;100.00;63404.56;10560906;28;20031;-67
2021/11/21 18:12:31;;;;;;;0.00;0.00;;;;;;;-145.06;100.00;63404.56;10560826;28;20027;-67
2021/11/21 18:17:32;;;;;;;0.00;0.00;;;;;;;-145.06;100.00;63404.56;10578775;28;20098;-67
2021/11/21 18:22:32;;;;;;;0.10;0.10;;;;;;;-145.06;100.00;63404.56;10578717;28;20756;-67
2021/11/21 18:27:33;;;;;;;0.10;0.10;;;;;;;-145.06;100.00;63404.56;10572599;28;20114;-67
2021/11/21 18:32:34;;;;;;;0.00;0.00;;;;;;;-145.06;100.00;63404.56;10577789;28;20020;-67
2021/11/21 18:37:34;;;;;;;0.00;0.00;;;;;;;-145.06;100.00;63404.56;10578354;28;20479;-67
2021/11/21 18:42:35;;;;;;;0.00;0.00;;;;;;;-145.06;100.00;63404.56;10577873;28;20043;-66
2021/11/21 18:47:36;;;;;;;0.00;0.00;;;;;;;-145.06;100.00;63404.56;10578120;28;20069;-67
2021/11/21 18:52:37;;;;;;;0.00;0.00;;;;;;;-145.06;100.00;63404.56;10577341;28;20073;-67
2021/11/21 18:57:43;;;;;;;0.00;0.00;;;;;;;-145.06;100.00;63404.56;10540944;28;20598;-67
2021/11/21 19:02:55;;;;;;;0.00;0.00;;;;;;;-145.06;100.00;63404.56;10556444;28;20020;-67
2021/11/21 19:08:01;;;;;;;0.00;0.00;;;;;;;-145.06;100.00;63404.56;10557328;28;20020;-66
2021/11/21 19:13:01;;;;;;;0.00;0.00;;;;;;;-145.06;100.00;63404.56;10565009;28;20072;-67
2021/11/21 19:18:01;;;;;;;0.00;0.00;;;;;;;-145.06;100.00;63404.56;10574804;28;20363;-67
2021/11/21 19:23:02;;;;;;;0.00;0.00;;;;;;;-145.06;100.00;63404.56;10574565;28;20292;-67
2021/11/21 19:28:04;;;;;;;0.00;0.00;;;;;;;-145.06;100.00;63404.56;10553051;28;20035;-67
2021/11/21 19:33:05;;;;;;;0.00;0.00;;;;;;;-145.06;100.00;63404.56;10532211;28;20285;-67
2021/11/21 19:38:06;;;;;;;0.00;0.00;;;;;;;-145.06;100.00;63404.56;10538075;28;20477;-67
2021/11/21 19:43:08;;;;;;;0.00;0.00;;;;;;;-145.06;100.00;63404.56;10560091;28;20023;-67
2021/11/21 19:48:09;;;;;;;0.00;0.00;;;;;;;-145.06;100.00;63404.56;10574500;28;20023;-67
2021/11/21 19:53:09;;;;;;;0.00;0.00;;;;;;;-145.06;100.00;63404.56;10573739;28;20233;-67
2021/11/21 19:58:10;;;;;;;0.00;0.00;;;;;;;-145.06;100.00;63404.56;10549218;28;20262;-67
2021/11/21 20:03:11;;;;;;;0.00;0.00;;;;;;;-145.06;100.00;63404.56;10531932;28;20099;-67
2021/11/21 20:08:11;;;;;;;0.00;0.00;;;;;;;-145.06;100.00;63404.56;10531621;28;20394;-67
2021/11/21 20:13:12;;;;;;;0.00;0.00;;;;;;;-145.06;100.00;63404.56;10551069;28;20471;-67
2021/11/21 20:18:13;;;;;;;0.00;0.00;;;;;;;-145.06;100.00;63404.56;10573922;28;20032;-67
2021/11/21 20:23:14;;;;;;;0.00;0.00;;;;;;;-145.06;100.00;63404.56;10574606;28;20438;-67
2021/11/21 20:28:14;;;;;;;0.00;0.00;;;;;;;-145.06;100.00;63404.56;10556221;28;20111;-67
2021/11/21 20:38:34;;;;;;;0.00;0.00;;;;;;;-145.06;100.00;63404.56;10567476;28;20027;-67
2021/11/21 20:43:35;;;;;;;0.00;0.00;;;;;;;-145.06;100.00;63404.56;10576600;28;20012;-67
2021/11/21 20:48:35;;;;;;;0.00;0.00;;;;;;;-145.06;100.00;63404.56;10522751;28;20016;-67
2021/11/21 20:53:36;;;;;;;0.00;0.00;;;;;;;-145.06;100.00;63404.56;10548943;28;20072;-67
2021/11/21 20:58:36;;;;;;;0.00;0.00;;;;;;;-145.06;100.00;63404.56;10550137;28;20414;-67
2021/11/21 21:03:36;;;;;;;0.00;0.00;;;;;;;-145.06;100.00;63404.56;10538446;28;20262;-67
2021/11/21 21:08:37;;;;;;;0.00;0.00;;;;;;;-145.06;100.00;63404.56;10554847;28;20042;-67
2021/11/21 21:13:38;;;;;;;0.00;0.00;;;;;;;-145.06;100.00;63404.56;10538278;28;20097;-67
2021/11/21 21:18:38;;;;;;;0.00;0.00;;;;;;;-145.06;100.00;63404.56;10538531;28;20033;-67
2021/11/21 21:23:40;;;;;;;0.00;0.00;;;;;;;-145.06;100.00;63404.56;10537663;28;20467;-67
2021/11/21 21:28:41;;;;;;;0.00;0.00;;;;;;;-145.06;100.00;63404.56;10534274;28;20027;-67
2021/11/21 21:33:42;;;;;;;0.00;0.00;;;;;;;-145.06;100.00;63404.56;10553374;28;20368;-67
2021/11/21 21:38:43;;;;;;;0.00;0.00;;;;;;;-145.06;100.00;63404.56;10578520;28;20503;-67
2021/11/21 21:43:45;;;;;;;0.00;0.00;;;;;;;-145.06;100.00;63404.56;10579095;28;20019;-67
2021/11/21 21:48:46;;;;;;;0.00;0.00;;;;;;;-145.06;100.00;63404.56;10578235;28;20051;-67
2021/11/21 21:53:46;;;;;;;0.00;0.00;;;;;;;-145.06;100.00;63404.56;10578854;28;20019;-67
2021/11/21 21:58:47;;;;;;;0.00;0.00;;;;;;;-145.06;100.00;63404.56;10559303;28;20436;-67
2021/11/21 22:03:49;;;;;;;0.00;0.00;;;;;;;-145.06;100.00;63404.56;10578278;28;20052;-67
2021/11/21 22:08:51;;;;;;;0.00;0.00;;;;;;;-145.06;100.00;63404.56;10570167;28;20016;-67
2021/11/21 22:13:51;;;;;;;0.00;0.00;;;;;;;-145.06;100.00;63404.56;10577686;28;20043;-67
2021/11/21 22:18:52;;;;;;;0.00;0.00;;;;;;;-145.06;100.00;63404.56;10577518;28;20409;-67
2021/11/21 22:23:52;;;;;;;0.00;0.00;;;;;;;-145.06;100.00;63404.56;10577465;28;20254;-67
2021/11/21 22:28:53;;;;;;;0.00;0.00;;;;;;;-145.06;100.00;63404.56;10549213;28;20024;-67
2021/11/21 22:33:54;;;;;;;0.00;0.00;;;;;;;-145.06;100.00;63404.56;10552322;28;20281;-66
2021/11/21 22:38:54;;;;;;;0.00;0.00;;;;;;;-145.06;100.00;63404.56;10577193;28;20012;-67
2021/11/21 22:43:54;;;;;;;0.00;0.00;;;;;;;-145.06;100.00;63404.56;10573949;28;20156;-67
2021/11/21 22:48:55;;;;;;;0.00;0.00;;;;;;;-145.06;100.00;63404.56;10576651;28;20269;-67
2021/11/21 22:53:55;;;;;;;0.00;0.00;;;;;;;-145.06;100.00;63404.56;10576062;28;20064;-67